sensor_id;sensor_type;location;lat;lon;timestamp;P1;durP1;ratioP1;P2;durP2;ratioP2
13590;SDS011;6866;50.778;7.206;2023-02-15T00:01:53;59.95;;;27.92;;
13590;SDS011;6866;50.778;7.206;2023-02-15T00:04:20;54.72;;;26.63;;
13590;SDS011;6866;50.778;7.206;2023-02-15T00:06:47;55.90;;;26.10;;
13590;SDS011;6866;50.778;7.206;2023-02-15T00:09:12;55.95;;;26.80;;
13590;SDS011;6866;50.778;7.206;2023-02-15T00:11:38;56.40;;;26.05;;
13590;SDS011;6866;50.778;7.206;2023-02-15T00:16:36;55.22;;;26.02;;
13590;SDS011;6866;50.778;7.206;2023-02-15T00:19:03;59.08;;;26.83;;
13590;SDS011;6866;50.778;7.206;2023-02-15T00:21:30;56.28;;;26.42;;
13590;SDS011;6866;50.778;7.206;2023-02-15T00:24:00;56.33;;;26.77;;
13590;SDS011;6866;50.778;7.206;2023-02-15T00:26:26;59.28;;;26.48;;
13590;SDS011;6866;50.778;7.206;2023-02-15T00:28:52;53.45;;;24.73;;
13590;SDS011;6866;50.778;7.206;2023-02-15T00:31:19;57.00;;;27.02;;
13590;SDS011;6866;50.778;7.206;2023-02-15T00:33:45;55.50;;;26.13;;
13590;SDS011;6866;50.778;7.206;2023-02-15T00:36:10;60.15;;;27.20;;
13590;SDS011;6866;50.778;7.206;2023-02-15T00:38:36;57.67;;;25.40;;
13590;SDS011;6866;50.778;7.206;2023-02-15T00:41:03;53.67;;;25.05;;
13590;SDS011;6866;50.778;7.206;2023-02-15T00:43:31;57.72;;;26.00;;
13590;SDS011;6866;50.778;7.206;2023-02-15T00:45:57;57.67;;;25.85;;
13590;SDS011;6866;50.778;7.206;2023-02-15T00:48:24;60.03;;;27.13;;
13590;SDS011;6866;50.778;7.206;2023-02-15T00:50:50;59.22;;;27.08;;
13590;SDS011;6866;50.778;7.206;2023-02-15T00:53:17;57.08;;;25.35;;
13590;SDS011;6866;50.778;7.206;2023-02-15T00:55:43;60.20;;;27.80;;
13590;SDS011;6866;50.778;7.206;2023-02-15T00:58:09;57.63;;;26.33;;
13590;SDS011;6866;50.778;7.206;2023-02-15T01:00:36;62.35;;;26.60;;
13590;SDS011;6866;50.778;7.206;2023-02-15T01:03:03;57.55;;;26.10;;
13590;SDS011;6866;50.778;7.206;2023-02-15T01:05:29;65.03;;;28.42;;
13590;SDS011;6866;50.778;7.206;2023-02-15T01:07:55;61.63;;;27.50;;
13590;SDS011;6866;50.778;7.206;2023-02-15T01:10:21;61.78;;;27.05;;
13590;SDS011;6866;50.778;7.206;2023-02-15T01:12:47;61.75;;;25.58;;
13590;SDS011;6866;50.778;7.206;2023-02-15T01:15:13;59.60;;;26.83;;
13590;SDS011;6866;50.778;7.206;2023-02-15T01:17:38;62.90;;;27.25;;
13590;SDS011;6866;50.778;7.206;2023-02-15T01:20:04;60.55;;;26.80;;
13590;SDS011;6866;50.778;7.206;2023-02-15T01:22:31;61.45;;;26.05;;
13590;SDS011;6866;50.778;7.206;2023-02-15T01:24:56;57.55;;;25.13;;
13590;SDS011;6866;50.778;7.206;2023-02-15T01:27:22;59.45;;;26.27;;
13590;SDS011;6866;50.778;7.206;2023-02-15T01:29:47;62.33;;;26.70;;
13590;SDS011;6866;50.778;7.206;2023-02-15T01:32:13;62.70;;;26.60;;
13590;SDS011;6866;50.778;7.206;2023-02-15T01:34:38;60.60;;;26.67;;
13590;SDS011;6866;50.778;7.206;2023-02-15T01:37:04;58.33;;;25.67;;
13590;SDS011;6866;50.778;7.206;2023-02-15T01:39:29;57.03;;;25.33;;
13590;SDS011;6866;50.778;7.206;2023-02-15T01:41:55;61.53;;;26.67;;
13590;SDS011;6866;50.778;7.206;2023-02-15T01:47:12;57.78;;;24.92;;
13590;SDS011;6866;50.778;7.206;2023-02-15T01:49:45;60.65;;;25.88;;
13590;SDS011;6866;50.778;7.206;2023-02-15T01:52:12;60.08;;;25.23;;
13590;SDS011;6866;50.778;7.206;2023-02-15T01:54:40;64.13;;;26.75;;
13590;SDS011;6866;50.778;7.206;2023-02-15T01:57:09;62.80;;;26.25;;
13590;SDS011;6866;50.778;7.206;2023-02-15T01:59:39;60.85;;;25.30;;
13590;SDS011;6866;50.778;7.206;2023-02-15T02:04:53;59.60;;;24.85;;
13590;SDS011;6866;50.778;7.206;2023-02-15T02:07:23;59.90;;;24.73;;
13590;SDS011;6866;50.778;7.206;2023-02-15T02:09:56;59.78;;;25.05;;
13590;SDS011;6866;50.778;7.206;2023-02-15T02:12:22;57.88;;;24.98;;
13590;SDS011;6866;50.778;7.206;2023-02-15T02:14:49;58.10;;;23.92;;
13590;SDS011;6866;50.778;7.206;2023-02-15T02:25:51;56.70;;;24.40;;
13590;SDS011;6866;50.778;7.206;2023-02-15T02:39:39;56.15;;;23.73;;
13590;SDS011;6866;50.778;7.206;2023-02-15T02:42:19;60.78;;;25.13;;
13590;SDS011;6866;50.778;7.206;2023-02-15T02:45:06;52.13;;;23.13;;
13590;SDS011;6866;50.778;7.206;2023-02-15T02:47:44;57.72;;;22.50;;
13590;SDS011;6866;50.778;7.206;2023-02-15T02:50:20;61.60;;;25.40;;
13590;SDS011;6866;50.778;7.206;2023-02-15T02:52:49;53.75;;;23.65;;
13590;SDS011;6866;50.778;7.206;2023-02-15T02:55:21;56.88;;;23.48;;
13590;SDS011;6866;50.778;7.206;2023-02-15T03:00:45;57.45;;;24.20;;
13590;SDS011;6866;50.778;7.206;2023-02-15T03:03:47;55.15;;;23.33;;
13590;SDS011;6866;50.778;7.206;2023-02-15T03:06:23;59.17;;;24.23;;
13590;SDS011;6866;50.778;7.206;2023-02-15T03:09:01;55.00;;;24.17;;
13590;SDS011;6866;50.778;7.206;2023-02-15T03:11:39;54.90;;;24.38;;
13590;SDS011;6866;50.778;7.206;2023-02-15T03:14:06;60.05;;;24.73;;
13590;SDS011;6866;50.778;7.206;2023-02-15T03:16:31;56.45;;;24.38;;
13590;SDS011;6866;50.778;7.206;2023-02-15T03:21:37;52.00;;;22.75;;
13590;SDS011;6866;50.778;7.206;2023-02-15T03:24:07;54.03;;;23.80;;
13590;SDS011;6866;50.778;7.206;2023-02-15T03:26:38;53.28;;;23.20;;
13590;SDS011;6866;50.778;7.206;2023-02-15T03:29:07;53.33;;;22.52;;
13590;SDS011;6866;50.778;7.206;2023-02-15T03:31:37;57.00;;;23.77;;
13590;SDS011;6866;50.778;7.206;2023-02-15T03:34:07;56.95;;;24.13;;
13590;SDS011;6866;50.778;7.206;2023-02-15T03:39:11;56.38;;;23.90;;
13590;SDS011;6866;50.778;7.206;2023-02-15T03:42:01;54.45;;;23.60;;
13590;SDS011;6866;50.778;7.206;2023-02-15T03:44:30;57.42;;;24.40;;
13590;SDS011;6866;50.778;7.206;2023-02-15T03:47:03;56.47;;;23.50;;
13590;SDS011;6866;50.778;7.206;2023-02-15T03:49:52;55.20;;;22.07;;
13590;SDS011;6866;50.778;7.206;2023-02-15T03:52:19;56.67;;;23.73;;
13590;SDS011;6866;50.778;7.206;2023-02-15T03:54:46;57.15;;;25.40;;
13590;SDS011;6866;50.778;7.206;2023-02-15T03:57:19;53.13;;;23.15;;
13590;SDS011;6866;50.778;7.206;2023-02-15T04:00:21;55.28;;;22.70;;
13590;SDS011;6866;50.778;7.206;2023-02-15T04:06:17;53.47;;;23.05;;
13590;SDS011;6866;50.778;7.206;2023-02-15T04:08:42;50.95;;;23.08;;
13590;SDS011;6866;50.778;7.206;2023-02-15T04:11:26;48.65;;;21.60;;
13590;SDS011;6866;50.778;7.206;2023-02-15T04:13:52;53.05;;;23.45;;
13590;SDS011;6866;50.778;7.206;2023-02-15T04:16:24;53.15;;;24.17;;
13590;SDS011;6866;50.778;7.206;2023-02-15T04:18:50;51.30;;;23.00;;
13590;SDS011;6866;50.778;7.206;2023-02-15T04:21:35;50.88;;;22.70;;
13590;SDS011;6866;50.778;7.206;2023-02-15T04:24:19;48.22;;;21.00;;
13590;SDS011;6866;50.778;7.206;2023-02-15T04:27:03;49.03;;;22.88;;
13590;SDS011;6866;50.778;7.206;2023-02-15T04:29:30;50.40;;;22.52;;
13590;SDS011;6866;50.778;7.206;2023-02-15T04:31:57;52.85;;;22.58;;
13590;SDS011;6866;50.778;7.206;2023-02-15T04:34:24;48.85;;;22.63;;
13590;SDS011;6866;50.778;7.206;2023-02-15T04:36:50;47.80;;;21.60;;
13590;SDS011;6866;50.778;7.206;2023-02-15T04:39:16;49.63;;;21.98;;
13590;SDS011;6866;50.778;7.206;2023-02-15T04:41:43;48.95;;;21.38;;
13590;SDS011;6866;50.778;7.206;2023-02-15T04:44:09;47.20;;;21.25;;
13590;SDS011;6866;50.778;7.206;2023-02-15T04:46:35;46.17;;;21.95;;
13590;SDS011;6866;50.778;7.206;2023-02-15T04:49:00;45.63;;;21.25;;
13590;SDS011;6866;50.778;7.206;2023-02-15T04:51:26;45.65;;;21.05;;
13590;SDS011;6866;50.778;7.206;2023-02-15T04:53:52;45.88;;;21.65;;
13590;SDS011;6866;50.778;7.206;2023-02-15T04:56:18;49.65;;;21.92;;
13590;SDS011;6866;50.778;7.206;2023-02-15T04:58:44;46.58;;;20.75;;
13590;SDS011;6866;50.778;7.206;2023-02-15T05:01:10;48.65;;;21.50;;
13590;SDS011;6866;50.778;7.206;2023-02-15T05:03:36;49.20;;;21.95;;
13590;SDS011;6866;50.778;7.206;2023-02-15T05:06:02;46.72;;;21.17;;
13590;SDS011;6866;50.778;7.206;2023-02-15T05:08:28;47.60;;;21.27;;
13590;SDS011;6866;50.778;7.206;2023-02-15T05:10:53;48.53;;;22.10;;
13590;SDS011;6866;50.778;7.206;2023-02-15T05:13:19;47.83;;;21.92;;
13590;SDS011;6866;50.778;7.206;2023-02-15T05:15:48;48.05;;;21.05;;
13590;SDS011;6866;50.778;7.206;2023-02-15T05:18:15;44.17;;;20.42;;
13590;SDS011;6866;50.778;7.206;2023-02-15T05:20:41;44.75;;;20.30;;
13590;SDS011;6866;50.778;7.206;2023-02-15T05:23:07;46.50;;;20.60;;
13590;SDS011;6866;50.778;7.206;2023-02-15T05:25:32;44.92;;;19.92;;
13590;SDS011;6866;50.778;7.206;2023-02-15T05:28:16;46.20;;;20.25;;
13590;SDS011;6866;50.778;7.206;2023-02-15T05:30:45;49.28;;;20.95;;
13590;SDS011;6866;50.778;7.206;2023-02-15T05:33:15;44.45;;;20.85;;
13590;SDS011;6866;50.778;7.206;2023-02-15T05:35:41;44.92;;;20.50;;
13590;SDS011;6866;50.778;7.206;2023-02-15T05:38:07;50.50;;;20.73;;
13590;SDS011;6866;50.778;7.206;2023-02-15T05:40:33;44.97;;;20.02;;
13590;SDS011;6866;50.778;7.206;2023-02-15T05:42:58;41.67;;;19.92;;
13590;SDS011;6866;50.778;7.206;2023-02-15T05:45:24;44.97;;;21.08;;
13590;SDS011;6866;50.778;7.206;2023-02-15T05:47:49;41.75;;;19.92;;
13590;SDS011;6866;50.778;7.206;2023-02-15T05:50:15;47.38;;;20.65;;
13590;SDS011;6866;50.778;7.206;2023-02-15T05:52:41;44.00;;;21.00;;
13590;SDS011;6866;50.778;7.206;2023-02-15T05:55:06;50.10;;;20.30;;
13590;SDS011;6866;50.778;7.206;2023-02-15T05:57:33;51.55;;;20.63;;
13590;SDS011;6866;50.778;7.206;2023-02-15T06:00:00;46.47;;;21.55;;
13590;SDS011;6866;50.778;7.206;2023-02-15T06:02:26;46.40;;;20.33;;
13590;SDS011;6866;50.778;7.206;2023-02-15T06:04:51;49.17;;;20.48;;
13590;SDS011;6866;50.778;7.206;2023-02-15T06:07:17;45.58;;;19.77;;
13590;SDS011;6866;50.778;7.206;2023-02-15T06:09:42;43.38;;;19.85;;
13590;SDS011;6866;50.778;7.206;2023-02-15T06:12:08;46.67;;;21.17;;
13590;SDS011;6866;50.778;7.206;2023-02-15T06:14:33;45.85;;;20.17;;
13590;SDS011;6866;50.778;7.206;2023-02-15T06:16:59;42.22;;;18.05;;
13590;SDS011;6866;50.778;7.206;2023-02-15T06:19:24;39.42;;;19.00;;
13590;SDS011;6866;50.778;7.206;2023-02-15T06:21:50;42.10;;;19.70;;
13590;SDS011;6866;50.778;7.206;2023-02-15T06:24:16;40.22;;;18.58;;
13590;SDS011;6866;50.778;7.206;2023-02-15T06:26:41;39.80;;;18.60;;
13590;SDS011;6866;50.778;7.206;2023-02-15T06:29:07;40.67;;;18.83;;
13590;SDS011;6866;50.778;7.206;2023-02-15T06:31:32;36.22;;;17.35;;
13590;SDS011;6866;50.778;7.206;2023-02-15T06:33:58;36.63;;;17.90;;
13590;SDS011;6866;50.778;7.206;2023-02-15T06:36:29;39.65;;;18.92;;
13590;SDS011;6866;50.778;7.206;2023-02-15T06:38:55;36.70;;;16.63;;
13590;SDS011;6866;50.778;7.206;2023-02-15T06:41:21;35.58;;;17.27;;
13590;SDS011;6866;50.778;7.206;2023-02-15T06:43:47;37.53;;;17.40;;
13590;SDS011;6866;50.778;7.206;2023-02-15T06:46:13;36.15;;;16.92;;
13590;SDS011;6866;50.778;7.206;2023-02-15T06:48:38;37.63;;;17.40;;
13590;SDS011;6866;50.778;7.206;2023-02-15T06:51:04;34.58;;;17.23;;
13590;SDS011;6866;50.778;7.206;2023-02-15T06:53:29;35.90;;;17.40;;
13590;SDS011;6866;50.778;7.206;2023-02-15T06:56:06;34.40;;;16.75;;
13590;SDS011;6866;50.778;7.206;2023-02-15T06:58:34;36.38;;;16.30;;
13590;SDS011;6866;50.778;7.206;2023-02-15T07:01:03;35.90;;;17.17;;
13590;SDS011;6866;50.778;7.206;2023-02-15T07:03:29;37.47;;;16.70;;
13590;SDS011;6866;50.778;7.206;2023-02-15T07:05:56;33.60;;;16.58;;
13590;SDS011;6866;50.778;7.206;2023-02-15T07:08:23;36.22;;;17.17;;
13590;SDS011;6866;50.778;7.206;2023-02-15T07:10:49;30.92;;;16.08;;
13590;SDS011;6866;50.778;7.206;2023-02-15T07:13:16;34.72;;;16.92;;
13590;SDS011;6866;50.778;7.206;2023-02-15T07:15:41;31.45;;;16.10;;
13590;SDS011;6866;50.778;7.206;2023-02-15T07:18:07;31.55;;;16.17;;
13590;SDS011;6866;50.778;7.206;2023-02-15T07:20:34;31.58;;;16.05;;
13590;SDS011;6866;50.778;7.206;2023-02-15T07:23:00;30.10;;;15.45;;
13590;SDS011;6866;50.778;7.206;2023-02-15T07:25:26;32.00;;;16.45;;
13590;SDS011;6866;50.778;7.206;2023-02-15T07:27:56;32.95;;;16.05;;
13590;SDS011;6866;50.778;7.206;2023-02-15T07:30:22;25.45;;;14.10;;
13590;SDS011;6866;50.778;7.206;2023-02-15T07:32:48;26.42;;;14.75;;
13590;SDS011;6866;50.778;7.206;2023-02-15T07:35:32;24.88;;;14.70;;
13590;SDS011;6866;50.778;7.206;2023-02-15T07:37:58;24.60;;;14.88;;
13590;SDS011;6866;50.778;7.206;2023-02-15T07:40:24;25.23;;;14.43;;
13590;SDS011;6866;50.778;7.206;2023-02-15T07:42:50;23.73;;;14.95;;
13590;SDS011;6866;50.778;7.206;2023-02-15T07:45:19;23.00;;;14.32;;
13590;SDS011;6866;50.778;7.206;2023-02-15T07:47:46;22.70;;;14.35;;
13590;SDS011;6866;50.778;7.206;2023-02-15T07:50:12;21.25;;;13.70;;
13590;SDS011;6866;50.778;7.206;2023-02-15T07:52:37;18.95;;;13.05;;
13590;SDS011;6866;50.778;7.206;2023-02-15T07:55:03;19.98;;;14.10;;
13590;SDS011;6866;50.778;7.206;2023-02-15T07:57:30;19.80;;;13.45;;
13590;SDS011;6866;50.778;7.206;2023-02-15T07:59:56;20.63;;;12.95;;
13590;SDS011;6866;50.778;7.206;2023-02-15T08:02:21;21.13;;;13.65;;
13590;SDS011;6866;50.778;7.206;2023-02-15T08:04:47;18.75;;;13.00;;
13590;SDS011;6866;50.778;7.206;2023-02-15T08:07:12;18.20;;;12.32;;
13590;SDS011;6866;50.778;7.206;2023-02-15T08:09:38;19.05;;;12.73;;
13590;SDS011;6866;50.778;7.206;2023-02-15T08:12:03;18.25;;;13.13;;
13590;SDS011;6866;50.778;7.206;2023-02-15T08:14:29;17.65;;;12.65;;
13590;SDS011;6866;50.778;7.206;2023-02-15T08:16:58;18.58;;;12.82;;
13590;SDS011;6866;50.778;7.206;2023-02-15T08:19:28;17.75;;;12.88;;
13590;SDS011;6866;50.778;7.206;2023-02-15T08:24:22;15.82;;;11.68;;
13590;SDS011;6866;50.778;7.206;2023-02-15T08:26:51;20.63;;;13.27;;
13590;SDS011;6866;50.778;7.206;2023-02-15T08:29:21;17.17;;;12.48;;
13590;SDS011;6866;50.778;7.206;2023-02-15T08:31:48;17.25;;;12.80;;
13590;SDS011;6866;50.778;7.206;2023-02-15T08:34:15;17.90;;;12.70;;
13590;SDS011;6866;50.778;7.206;2023-02-15T08:36:43;16.88;;;12.68;;
13590;SDS011;6866;50.778;7.206;2023-02-15T08:39:13;16.73;;;12.18;;
13590;SDS011;6866;50.778;7.206;2023-02-15T08:41:43;16.17;;;11.93;;
13590;SDS011;6866;50.778;7.206;2023-02-15T08:44:11;17.40;;;11.75;;
13590;SDS011;6866;50.778;7.206;2023-02-15T08:46:39;15.75;;;11.60;;
13590;SDS011;6866;50.778;7.206;2023-02-15T08:49:06;16.15;;;11.93;;
13590;SDS011;6866;50.778;7.206;2023-02-15T08:51:33;16.55;;;11.88;;
13590;SDS011;6866;50.778;7.206;2023-02-15T08:54:04;17.52;;;12.43;;
13590;SDS011;6866;50.778;7.206;2023-02-15T08:56:32;16.57;;;11.93;;
13590;SDS011;6866;50.778;7.206;2023-02-15T08:58:59;15.90;;;11.57;;
13590;SDS011;6866;50.778;7.206;2023-02-15T09:01:27;20.08;;;12.93;;
13590;SDS011;6866;50.778;7.206;2023-02-15T09:03:55;17.77;;;12.95;;
13590;SDS011;6866;50.778;7.206;2023-02-15T09:06:23;16.13;;;11.95;;
13590;SDS011;6866;50.778;7.206;2023-02-15T09:08:49;18.23;;;12.73;;
13590;SDS011;6866;50.778;7.206;2023-02-15T09:11:16;17.75;;;12.40;;
13590;SDS011;6866;50.778;7.206;2023-02-15T09:14:00;16.35;;;11.85;;
13590;SDS011;6866;50.778;7.206;2023-02-15T09:16:28;16.42;;;12.38;;
13590;SDS011;6866;50.778;7.206;2023-02-15T09:18:55;16.95;;;12.27;;
13590;SDS011;6866;50.778;7.206;2023-02-15T09:21:22;15.77;;;11.75;;
13590;SDS011;6866;50.778;7.206;2023-02-15T09:23:52;16.38;;;12.23;;
13590;SDS011;6866;50.778;7.206;2023-02-15T09:26:21;17.08;;;11.60;;
13590;SDS011;6866;50.778;7.206;2023-02-15T09:28:51;17.08;;;12.02;;
13590;SDS011;6866;50.778;7.206;2023-02-15T09:31:19;16.05;;;11.43;;
13590;SDS011;6866;50.778;7.206;2023-02-15T09:33:48;16.15;;;12.07;;
13590;SDS011;6866;50.778;7.206;2023-02-15T09:36:18;17.25;;;12.20;;
13590;SDS011;6866;50.778;7.206;2023-02-15T09:38:46;16.20;;;12.10;;
13590;SDS011;6866;50.778;7.206;2023-02-15T09:44:25;15.40;;;12.13;;
13590;SDS011;6866;50.778;7.206;2023-02-15T09:47:21;17.17;;;12.23;;
13590;SDS011;6866;50.778;7.206;2023-02-15T10:04:10;20.13;;;12.63;;
13590;SDS011;6866;50.778;7.206;2023-02-15T10:07:00;19.67;;;12.85;;
13590;SDS011;6866;50.778;7.206;2023-02-15T10:13:05;18.48;;;12.25;;
13590;SDS011;6866;50.778;7.206;2023-02-15T10:15:26;17.40;;;12.82;;
13590;SDS011;6866;50.778;7.206;2023-02-15T10:18:20;18.23;;;12.52;;
13590;SDS011;6866;50.778;7.206;2023-02-15T10:27:05;19.02;;;12.82;;
13590;SDS011;6866;50.778;7.206;2023-02-15T10:29:38;16.30;;;11.88;;
13590;SDS011;6866;50.778;7.206;2023-02-15T10:34:36;18.67;;;12.60;;
13590;SDS011;6866;50.778;7.206;2023-02-15T10:37:09;16.08;;;11.98;;
13590;SDS011;6866;50.778;7.206;2023-02-15T10:48:05;19.73;;;13.25;;
13590;SDS011;6866;50.778;7.206;2023-02-15T10:53:13;21.05;;;12.88;;
13590;SDS011;6866;50.778;7.206;2023-02-15T10:55:55;19.67;;;12.88;;
13590;SDS011;6866;50.778;7.206;2023-02-15T11:03:40;21.15;;;12.77;;
13590;SDS011;6866;50.778;7.206;2023-02-15T11:06:18;18.92;;;12.50;;
13590;SDS011;6866;50.778;7.206;2023-02-15T11:08:46;17.80;;;12.00;;
13590;SDS011;6866;50.778;7.206;2023-02-15T11:11:36;17.77;;;11.80;;
13590;SDS011;6866;50.778;7.206;2023-02-15T11:16:55;22.35;;;12.70;;
13590;SDS011;6866;50.778;7.206;2023-02-15T11:19:28;20.00;;;11.82;;
13590;SDS011;6866;50.778;7.206;2023-02-15T11:21:59;18.90;;;12.07;;
13590;SDS011;6866;50.778;7.206;2023-02-15T11:24:29;20.45;;;13.10;;
13590;SDS011;6866;50.778;7.206;2023-02-15T11:34:38;17.98;;;11.73;;
13590;SDS011;6866;50.778;7.206;2023-02-15T11:37:12;18.05;;;11.80;;
13590;SDS011;6866;50.778;7.206;2023-02-15T11:39:41;20.60;;;11.75;;
13590;SDS011;6866;50.778;7.206;2023-02-15T11:42:13;17.92;;;11.55;;
13590;SDS011;6866;50.778;7.206;2023-02-15T11:44:49;17.10;;;11.30;;
13590;SDS011;6866;50.778;7.206;2023-02-15T11:47:23;20.02;;;11.45;;
13590;SDS011;6866;50.778;7.206;2023-02-15T11:49:49;18.55;;;11.35;;
13590;SDS011;6866;50.778;7.206;2023-02-15T11:52:14;18.27;;;11.77;;
13590;SDS011;6866;50.778;7.206;2023-02-15T11:54:43;18.02;;;11.20;;
13590;SDS011;6866;50.778;7.206;2023-02-15T12:00:06;18.63;;;11.48;;
13590;SDS011;6866;50.778;7.206;2023-02-15T12:02:37;17.95;;;11.52;;
13590;SDS011;6866;50.778;7.206;2023-02-15T12:05:09;20.63;;;12.70;;
13590;SDS011;6866;50.778;7.206;2023-02-15T12:07:42;20.23;;;11.57;;
13590;SDS011;6866;50.778;7.206;2023-02-15T12:10:20;17.08;;;10.82;;
13590;SDS011;6866;50.778;7.206;2023-02-15T12:13:07;17.30;;;11.25;;
13590;SDS011;6866;50.778;7.206;2023-02-15T12:15:33;18.45;;;11.90;;
13590;SDS011;6866;50.778;7.206;2023-02-15T12:18:00;18.10;;;11.52;;
13590;SDS011;6866;50.778;7.206;2023-02-15T12:23:00;18.80;;;10.95;;
13590;SDS011;6866;50.778;7.206;2023-02-15T12:28:15;19.83;;;12.45;;
13590;SDS011;6866;50.778;7.206;2023-02-15T12:30:55;17.05;;;10.63;;
13590;SDS011;6866;50.778;7.206;2023-02-15T12:33:34;18.30;;;11.30;;
13590;SDS011;6866;50.778;7.206;2023-02-15T12:39:27;19.08;;;11.60;;
13590;SDS011;6866;50.778;7.206;2023-02-15T12:44:20;18.30;;;11.50;;
13590;SDS011;6866;50.778;7.206;2023-02-15T12:46:56;19.52;;;11.30;;
13590;SDS011;6866;50.778;7.206;2023-02-15T12:49:43;19.80;;;11.88;;
13590;SDS011;6866;50.778;7.206;2023-02-15T12:54:47;23.58;;;13.32;;
13590;SDS011;6866;50.778;7.206;2023-02-15T12:59:51;19.98;;;11.90;;
13590;SDS011;6866;50.778;7.206;2023-02-15T13:02:26;18.23;;;11.45;;
13590;SDS011;6866;50.778;7.206;2023-02-15T13:04:52;20.48;;;11.90;;
13590;SDS011;6866;50.778;7.206;2023-02-15T13:07:18;22.83;;;13.18;;
13590;SDS011;6866;50.778;7.206;2023-02-15T13:09:45;23.85;;;12.70;;
13590;SDS011;6866;50.778;7.206;2023-02-15T13:12:16;18.88;;;12.20;;
13590;SDS011;6866;50.778;7.206;2023-02-15T13:14:56;22.75;;;12.35;;
13590;SDS011;6866;50.778;7.206;2023-02-15T13:17:32;17.42;;;11.27;;
13590;SDS011;6866;50.778;7.206;2023-02-15T13:20:13;21.00;;;12.60;;
13590;SDS011;6866;50.778;7.206;2023-02-15T13:22:44;19.65;;;12.77;;
13590;SDS011;6866;50.778;7.206;2023-02-15T13:25:13;25.98;;;13.55;;
13590;SDS011;6866;50.778;7.206;2023-02-15T13:27:44;20.90;;;11.85;;
13590;SDS011;6866;50.778;7.206;2023-02-15T13:30:16;23.95;;;13.45;;
13590;SDS011;6866;50.778;7.206;2023-02-15T13:32:51;23.08;;;13.73;;
13590;SDS011;6866;50.778;7.206;2023-02-15T13:35:22;24.02;;;13.13;;
13590;SDS011;6866;50.778;7.206;2023-02-15T13:38:06;22.90;;;13.55;;
13590;SDS011;6866;50.778;7.206;2023-02-15T13:40:55;22.60;;;13.32;;
13590;SDS011;6866;50.778;7.206;2023-02-15T13:51:43;20.30;;;12.80;;
13590;SDS011;6866;50.778;7.206;2023-02-15T13:54:23;20.63;;;14.00;;
13590;SDS011;6866;50.778;7.206;2023-02-15T14:07:53;20.88;;;12.82;;
13590;SDS011;6866;50.778;7.206;2023-02-15T14:10:39;19.27;;;12.77;;
13590;SDS011;6866;50.778;7.206;2023-02-15T14:13:18;22.33;;;13.93;;
13590;SDS011;6866;50.778;7.206;2023-02-15T14:16:05;23.02;;;13.45;;
13590;SDS011;6866;50.778;7.206;2023-02-15T14:18:41;22.98;;;12.70;;
13590;SDS011;6866;50.778;7.206;2023-02-15T14:21:17;20.75;;;13.57;;
13590;SDS011;6866;50.778;7.206;2023-02-15T14:32:38;23.77;;;13.35;;
13590;SDS011;6866;50.778;7.206;2023-02-15T14:35:17;23.10;;;14.27;;
13590;SDS011;6866;50.778;7.206;2023-02-15T14:37:53;23.13;;;13.93;;
13590;SDS011;6866;50.778;7.206;2023-02-15T14:48:42;22.95;;;12.73;;
13590;SDS011;6866;50.778;7.206;2023-02-15T14:54:08;23.27;;;13.60;;
13590;SDS011;6866;50.778;7.206;2023-02-15T14:59:36;19.58;;;13.00;;
13590;SDS011;6866;50.778;7.206;2023-02-15T15:02:10;20.20;;;13.65;;
13590;SDS011;6866;50.778;7.206;2023-02-15T15:04:44;21.73;;;13.20;;
13590;SDS011;6866;50.778;7.206;2023-02-15T15:07:27;21.88;;;13.13;;
13590;SDS011;6866;50.778;7.206;2023-02-15T15:12:45;20.55;;;13.57;;
13590;SDS011;6866;50.778;7.206;2023-02-15T15:15:16;20.98;;;13.18;;
13590;SDS011;6866;50.778;7.206;2023-02-15T15:18:03;21.90;;;13.10;;
13590;SDS011;6866;50.778;7.206;2023-02-15T15:20:50;21.52;;;14.07;;
13590;SDS011;6866;50.778;7.206;2023-02-15T15:31:00;25.48;;;13.68;;
13590;SDS011;6866;50.778;7.206;2023-02-15T15:42:29;20.13;;;13.20;;
13590;SDS011;6866;50.778;7.206;2023-02-15T15:45:02;21.33;;;12.93;;
13590;SDS011;6866;50.778;7.206;2023-02-15T15:50:20;21.00;;;13.57;;
13590;SDS011;6866;50.778;7.206;2023-02-15T15:52:47;23.08;;;12.85;;
13590;SDS011;6866;50.778;7.206;2023-02-15T15:55:24;22.63;;;13.07;;
13590;SDS011;6866;50.778;7.206;2023-02-15T15:57:53;25.33;;;14.02;;
13590;SDS011;6866;50.778;7.206;2023-02-15T16:01:24;19.80;;;13.07;;
13590;SDS011;6866;50.778;7.206;2023-02-15T16:03:28;24.10;;;13.38;;
13590;SDS011;6866;50.778;7.206;2023-02-15T16:05:54;24.05;;;14.00;;
13590;SDS011;6866;50.778;7.206;2023-02-15T16:08:28;23.80;;;14.65;;
13590;SDS011;6866;50.778;7.206;2023-02-15T16:10:58;22.20;;;14.07;;
13590;SDS011;6866;50.778;7.206;2023-02-15T16:13:32;24.27;;;14.68;;
13590;SDS011;6866;50.778;7.206;2023-02-15T16:15:58;24.95;;;13.85;;
13590;SDS011;6866;50.778;7.206;2023-02-15T16:18:25;24.70;;;14.75;;
13590;SDS011;6866;50.778;7.206;2023-02-15T16:20:53;22.95;;;14.20;;
13590;SDS011;6866;50.778;7.206;2023-02-15T16:26:03;24.58;;;14.23;;
13590;SDS011;6866;50.778;7.206;2023-02-15T16:28:37;23.38;;;14.60;;
13590;SDS011;6866;50.778;7.206;2023-02-15T16:31:14;25.85;;;14.82;;
13590;SDS011;6866;50.778;7.206;2023-02-15T16:33:41;23.10;;;15.02;;
13590;SDS011;6866;50.778;7.206;2023-02-15T16:36:12;23.50;;;14.73;;
13590;SDS011;6866;50.778;7.206;2023-02-15T16:41:15;27.20;;;14.88;;
13590;SDS011;6866;50.778;7.206;2023-02-15T16:43:49;24.42;;;14.25;;
13590;SDS011;6866;50.778;7.206;2023-02-15T16:46:25;26.50;;;15.77;;
13590;SDS011;6866;50.778;7.206;2023-02-15T16:49:07;23.85;;;14.88;;
13590;SDS011;6866;50.778;7.206;2023-02-15T16:51:42;26.75;;;15.00;;
13590;SDS011;6866;50.778;7.206;2023-02-15T16:54:18;26.83;;;15.30;;
13590;SDS011;6866;50.778;7.206;2023-02-15T16:56:46;24.40;;;15.35;;
13590;SDS011;6866;50.778;7.206;2023-02-15T16:59:20;26.42;;;15.20;;
13590;SDS011;6866;50.778;7.206;2023-02-15T17:02:10;26.13;;;15.27;;
13590;SDS011;6866;50.778;7.206;2023-02-15T17:04:43;25.15;;;15.98;;
13590;SDS011;6866;50.778;7.206;2023-02-15T17:07:17;28.33;;;15.48;;
13590;SDS011;6866;50.778;7.206;2023-02-15T17:20:24;25.73;;;15.18;;
13590;SDS011;6866;50.778;7.206;2023-02-15T17:22:50;25.13;;;14.98;;
13590;SDS011;6866;50.778;7.206;2023-02-15T17:25:19;24.73;;;14.77;;
13590;SDS011;6866;50.778;7.206;2023-02-15T17:27:52;26.80;;;15.20;;
13590;SDS011;6866;50.778;7.206;2023-02-15T17:30:37;29.42;;;15.68;;
13590;SDS011;6866;50.778;7.206;2023-02-15T17:33:04;25.77;;;15.10;;
13590;SDS011;6866;50.778;7.206;2023-02-15T17:35:51;27.85;;;15.35;;
13590;SDS011;6866;50.778;7.206;2023-02-15T17:38:28;24.58;;;14.52;;
13590;SDS011;6866;50.778;7.206;2023-02-15T17:40:54;25.73;;;14.88;;
13590;SDS011;6866;50.778;7.206;2023-02-15T17:43:19;28.25;;;16.05;;
13590;SDS011;6866;50.778;7.206;2023-02-15T17:45:48;26.27;;;15.50;;
13590;SDS011;6866;50.778;7.206;2023-02-15T17:48:22;28.17;;;16.13;;
13590;SDS011;6866;50.778;7.206;2023-02-15T17:50:56;26.58;;;15.77;;
13590;SDS011;6866;50.778;7.206;2023-02-15T17:53:22;28.17;;;16.00;;
13590;SDS011;6866;50.778;7.206;2023-02-15T17:55:49;27.85;;;15.63;;
13590;SDS011;6866;50.778;7.206;2023-02-15T17:58:16;32.05;;;16.77;;
13590;SDS011;6866;50.778;7.206;2023-02-15T18:00:48;26.73;;;16.08;;
13590;SDS011;6866;50.778;7.206;2023-02-15T18:03:47;28.05;;;16.25;;
13590;SDS011;6866;50.778;7.206;2023-02-15T18:06:34;24.55;;;15.23;;
13590;SDS011;6866;50.778;7.206;2023-02-15T18:09:21;25.90;;;15.23;;
13590;SDS011;6866;50.778;7.206;2023-02-15T18:14:37;27.55;;;16.55;;